Time;durP1;ratioP1;P1;durP2;ratioP2;P2;SDS_P1;SDS_P2;PMS_P1;PMS_P2;Temp;Humidity;BMP_temperature;BMP_pressure;BME280_temperature;BME280_humidity;BME280_pressure;Samples;Min_cycle;Max_cycle;Signal;HPM_P1;HPM_P2
2022/01/02 00:00:44;;;;;;;0.30;0.10;;;3.50;99.90;;;;;;5056772;28;20441;-86
2022/01/02 00:03:19;;;;;;;0.30;0.10;;;3.50;99.90;;;;;;5058520;28;20928;-86
2022/01/02 00:05:46;;;;;;;0.30;0.20;;;3.50;99.90;;;;;;5062451;28;20449;-86
2022/01/02 00:08:14;;;;;;;0.30;0.20;;;3.60;99.90;;;;;;5052790;28;20509;-86
2022/01/02 00:10:48;;;;;;;0.33;0.17;;;3.60;99.90;;;;;;5066413;28;20469;-87
2022/01/02 00:13:21;;;;;;;0.30;0.20;;;3.60;99.90;;;;;;5067614;28;20448;-86
2022/01/02 00:15:48;;;;;;;0.30;0.10;;;3.60;99.90;;;;;;5062749;28;20540;-88
2022/01/02 00:18:17;;;;;;;0.30;0.10;;;3.70;99.90;;;;;;5061227;28;20533;-86
2022/01/02 00:20:48;;;;;;;0.30;0.10;;;3.80;99.90;;;;;;5053902;28;20445;-86
2022/01/02 00:23:21;;;;;;;0.40;0.30;;;4.00;99.90;;;;;;5062902;28;20915;-85
2022/01/02 00:25:52;;;;;;;0.30;0.20;;;4.10;99.90;;;;;;5058647;28;20457;-87
2022/01/02 00:28:20;;;;;;;0.30;0.20;;;4.20;99.90;;;;;;5053777;28;20443;-86
2022/01/02 00:30:49;;;;;;;0.30;0.10;;;4.20;99.90;;;;;;5062779;28;20842;-86
2022/01/02 00:33:16;;;;;;;0.33;0.20;;;4.10;99.90;;;;;;5067598;28;20453;-85
2022/01/02 00:35:43;;;;;;;0.30;0.10;;;4.10;99.90;;;;;;5078422;28;20539;-86
2022/01/02 00:38:20;;;;;;;0.30;0.20;;;4.00;99.90;;;;;;5077770;28;20475;-85
2022/01/02 00:40:49;;;;;;;0.30;0.10;;;3.90;99.90;;;;;;5088636;28;20456;-85
2022/01/02 00:43:22;;;;;;;0.30;0.10;;;3.90;99.90;;;;;;5067567;28;20968;-87
2022/01/02 00:45:52;;;;;;;0.30;0.10;;;3.80;99.90;;;;;;5070810;28;20455;-89
2022/01/02 00:48:25;;;;;;;0.40;0.30;;;3.60;99.90;;;;;;5069080;28;20935;-86
2022/01/02 00:50:56;;;;;;;0.30;0.10;;;3.40;99.90;;;;;;5067136;28;20456;-86
2022/01/02 00:53:32;;;;;;;0.30;0.20;;;3.30;99.90;;;;;;5068662;28;20973;-88
2022/01/02 00:56:01;;;;;;;0.30;0.20;;;3.30;99.90;;;;;;5068364;28;20946;-89
2022/01/02 00:58:40;;;;;;;0.30;0.13;;;3.20;99.90;;;;;;5058312;28;20889;-89
2022/01/02 01:01:14;;;;;;;0.30;0.10;;;3.10;99.90;;;;;;5063621;28;20490;-85
2022/01/02 01:03:42;;;;;;;0.40;0.20;;;3.20;99.90;;;;;;5059758;28;20505;-86
2022/01/02 01:06:11;;;;;;;0.40;0.30;;;3.20;99.90;;;;;;5067419;28;20444;-87
2022/01/02 01:08:41;;;;;;;0.30;0.10;;;3.20;99.90;;;;;;5057206;28;20924;-86
2022/01/02 01:11:09;;;;;;;0.30;0.10;;;3.30;99.90;;;;;;5059534;28;20450;-86
2022/01/02 01:13:36;;;;;;;0.30;0.10;;;3.30;99.90;;;;;;5060410;28;20892;-86
2022/01/02 01:16:04;;;;;;;0.30;0.20;;;3.30;99.90;;;;;;5057522;28;20843;-86
2022/01/02 01:18:31;;;;;;;0.30;0.20;;;3.40;99.90;;;;;;5059959;28;20879;-88
2022/01/02 01:20:58;;;;;;;0.30;0.10;;;3.40;99.90;;;;;;5057667;28;20428;-86
2022/01/02 01:23:25;;;;;;;0.30;0.10;;;3.40;99.90;;;;;;5052954;28;20528;-86
2022/01/02 01:25:53;;;;;;;0.30;0.20;;;3.30;99.90;;;;;;5059138;28;20440;-88
2022/01/02 01:28:21;;;;;;;0.30;0.20;;;3.30;99.90;;;;;;5067290;28;20468;-89
2022/01/02 01:30:48;;;;;;;0.30;0.20;;;3.20;99.90;;;;;;5055009;28;20835;-88
2022/01/02 01:33:15;;;;;;;0.30;0.20;;;3.20;99.90;;;;;;5061044;28;20463;-88
2022/01/02 01:35:42;;;;;;;0.30;0.10;;;3.20;99.90;;;;;;5053071;28;20637;-86
2022/01/02 01:38:10;;;;;;;0.30;0.10;;;3.30;99.90;;;;;;5051222;28;20511;-87
2022/01/02 01:40:50;;;;;;;0.30;0.10;;;3.30;99.90;;;;;;5061878;28;20911;-86
2022/01/02 01:43:23;;;;;;;0.30;0.10;;;3.30;99.90;;;;;;5059417;28;20498;-86
2022/01/02 01:45:50;;;;;;;0.30;0.10;;;3.30;99.90;;;;;;5059536;28;20456;-86
2022/01/02 01:48:17;;;;;;;0.43;0.43;;;3.30;99.90;;;;;;5057314;28;20823;-86
2022/01/02 01:50:44;;;;;;;0.30;0.10;;;3.30;99.90;;;;;;5066332;28;20505;-86
2022/01/02 01:53:12;;;;;;;0.30;0.10;;;3.30;99.90;;;;;;5056820;28;21897;-86
2022/01/02 01:55:39;;;;;;;0.30;0.20;;;3.30;99.90;;;;;;5055264;28;20444;-87
2022/01/02 01:58:08;;;;;;;0.30;0.20;;;3.20;99.90;;;;;;5057186;28;20484;-87
2022/01/02 02:00:36;;;;;;;0.30;0.10;;;3.30;99.90;;;;;;5055618;28;20448;-87
2022/01/02 02:03:04;;;;;;;0.30;0.20;;;3.30;99.90;;;;;;5063564;28;20961;-88
2022/01/02 02:05:31;;;;;;;1.13;1.13;;;3.30;99.90;;;;;;5067358;28;20884;-87
2022/01/02 02:07:58;;;;;;;1.23;1.23;;;3.20;99.90;;;;;;5063306;28;20456;-89
2022/01/02 02:10:29;;;;;;;0.30;0.10;;;3.00;99.90;;;;;;5055571;28;20864;-87
2022/01/02 02:12:58;;;;;;;0.30;0.10;;;3.00;99.90;;;;;;5078709;28;20488;-87
2022/01/02 02:15:25;;;;;;;0.30;0.20;;;2.90;99.90;;;;;;5093250;28;20463;-87
2022/01/02 02:17:54;;;;;;;0.30;0.10;;;2.90;99.90;;;;;;5076355;28;20484;-85
2022/01/02 02:20:24;;;;;;;0.30;0.13;;;3.00;99.90;;;;;;5089363;28;20440;-85
2022/01/02 02:22:55;;;;;;;0.30;0.10;;;3.00;99.90;;;;;;5073982;28;20535;-89
2022/01/02 02:25:24;;;;;;;0.30;0.10;;;2.90;99.90;;;;;;5067619;28;20459;-87
2022/01/02 02:27:52;;;;;;;0.30;0.10;;;3.00;99.90;;;;;;5069016;28;20514;-87
2022/01/02 02:30:20;;;;;;;0.30;0.10;;;3.00;99.90;;;;;;5067454;28;20440;-87
2022/01/02 02:32:47;;;;;;;0.30;0.10;;;3.00;99.90;;;;;;5068712;28;20452;-88
2022/01/02 02:35:15;;;;;;;0.30;0.10;;;3.00;99.90;;;;;;5065605;28;20472;-86
2022/01/02 02:37:45;;;;;;;0.40;0.30;;;3.00;99.90;;;;;;5068792;28;20510;-85
2022/01/02 02:40:14;;;;;;;0.30;0.10;;;2.90;99.90;;;;;;5057851;28;20451;-89
2022/01/02 02:42:48;;;;;;;0.70;0.67;;;3.00;99.90;;;;;;5065943;28;20444;-89
2022/01/02 02:51:03;;;;;;;0.30;0.10;;;3.10;99.90;;;;;;5071116;28;20903;-85
2022/01/02 02:53:32;;;;;;;0.30;0.10;;;3.40;99.90;;;;;;5063210;28;20815;-87
2022/01/02 02:55:59;;;;;;;0.30;0.20;;;3.60;99.90;;;;;;5055040;28;20510;-85
2022/01/02 02:58:42;;;;;;;0.30;0.10;;;3.60;99.90;;;;;;5060157;28;20809;-86
2022/01/02 03:01:11;;;;;;;0.40;0.30;;;3.60;99.90;;;;;;5055812;28;20502;-89
2022/01/02 03:03:39;;;;;;;0.30;0.10;;;3.50;99.90;;;;;;5057677;28;20927;-87
2022/01/02 03:06:06;;;;;;;0.30;0.10;;;3.50;99.90;;;;;;5062817;28;20770;-87
2022/01/02 03:08:36;;;;;;;0.30;0.10;;;3.60;99.90;;;;;;5061706;28;20467;-86
2022/01/02 03:11:06;;;;;;;0.30;0.10;;;3.60;99.90;;;;;;5057860;28;20461;-85
2022/01/02 03:13:33;;;;;;;0.30;0.10;;;3.50;99.90;;;;;;5051837;28;20448;-89
2022/01/02 03:16:00;;;;;;;0.30;0.10;;;3.50;99.90;;;;;;5068938;28;20464;-85
2022/01/02 03:18:27;;;;;;;0.30;0.20;;;3.60;99.90;;;;;;5052938;28;20974;-87
2022/01/02 03:20:54;;;;;;;0.30;0.10;;;3.60;99.90;;;;;;5052117;28;20843;-86
2022/01/02 03:23:20;;;;;;;0.30;0.10;;;3.50;99.90;;;;;;5061505;28;20456;-86
2022/01/02 03:25:49;;;;;;;0.30;0.10;;;3.60;99.90;;;;;;5059653;28;20504;-85
2022/01/02 03:28:16;;;;;;;0.30;0.20;;;3.60;99.90;;;;;;5059455;28;20436;-88
2022/01/02 03:30:43;;;;;;;0.30;0.10;;;3.60;99.90;;;;;;5063072;28;20463;-87
2022/01/02 03:33:11;;;;;;;0.30;0.10;;;3.50;99.90;;;;;;5053784;28;20437;-88
2022/01/02 03:35:38;;;;;;;0.30;0.10;;;3.50;99.90;;;;;;5057185;28;20473;-87
2022/01/02 03:38:06;;;;;;;0.30;0.10;;;3.30;99.90;;;;;;5061671;28;20468;-89
2022/01/02 03:40:33;;;;;;;0.40;0.30;;;3.30;99.90;;;;;;5054898;28;20437;-87
2022/01/02 03:43:02;;;;;;;0.30;0.10;;;3.10;99.90;;;;;;5054326;28;20473;-86
2022/01/02 03:45:29;;;;;;;0.30;0.10;;;3.20;99.90;;;;;;5068959;28;20529;-85
2022/01/02 03:47:56;;;;;;;0.30;0.20;;;3.20;99.90;;;;;;5061968;28;20456;-86
2022/01/02 03:50:23;;;;;;;0.30;0.10;;;3.30;99.90;;;;;;5052898;28;20503;-86
2022/01/02 03:52:50;;;;;;;0.30;0.10;;;3.20;99.90;;;;;;5069895;28;20436;-87
2022/01/02 03:55:17;;;;;;;0.40;0.30;;;3.20;99.90;;;;;;5083993;28;20436;-88
2022/01/02 03:57:44;;;;;;;0.30;0.10;;;3.20;99.90;;;;;;5084015;28;20483;-86
2022/01/02 04:00:15;;;;;;;0.30;0.17;;;3.20;99.90;;;;;;5092302;28;20468;-86
2022/01/02 04:02:42;;;;;;;0.30;0.10;;;3.00;99.90;;;;;;5066260;28;20466;-86
2022/01/02 04:05:12;;;;;;;0.30;0.10;;;3.00;99.90;;;;;;5069037;28;20513;-85
2022/01/02 04:07:39;;;;;;;0.30;0.10;;;2.90;99.90;;;;;;5071264;28;20459;-86
2022/01/02 04:10:10;;;;;;;0.30;0.10;;;2.80;99.90;;;;;;5067608;28;20456;-88
2022/01/02 04:12:37;;;;;;;0.30;0.10;;;2.70;99.90;;;;;;5066037;28;20493;-86
2022/01/02 04:15:08;;;;;;;0.30;0.10;;;2.50;99.90;;;;;;5063045;28;20437;-88
2022/01/02 04:17:37;;;;;;;0.30;0.10;;;2.40;99.90;;;;;;5067590;28;20947;-86
2022/01/02 04:20:07;;;;;;;0.30;0.10;;;2.30;99.90;;;;;;5058375;28;20582;-86
2022/01/02 04:22:34;;;;;;;0.30;0.10;;;2.20;99.90;;;;;;5054709;28;20440;-85
2022/01/02 04:25:01;;;;;;;0.30;0.10;;;2.20;99.90;;;;;;5067378;28;20447;-85
2022/01/02 04:27:28;;;;;;;0.30;0.20;;;2.20;99.90;;;;;;5057145;28;20440;-86
2022/01/02 04:29:56;;;;;;;0.30;0.20;;;2.10;99.90;;;;;;5058264;28;20549;-86
2022/01/02 04:32:23;;;;;;;0.30;0.10;;;2.10;99.90;;;;;;5060166;28;20966;-85
2022/01/02 04:34:51;;;;;;;0.30;0.10;;;2.10;99.90;;;;;;5055548;28;20915;-85
2022/01/02 04:37:18;;;;;;;0.30;0.10;;;2.10;99.90;;;;;;5058931;28;20440;-88
2022/01/02 04:39:46;;;;;;;0.30;0.10;;;2.10;99.90;;;;;;5069241;28;20491;-85
2022/01/02 04:42:13;;;;;;;0.30;0.20;;;2.00;99.90;;;;;;5061068;28;20521;-86
2022/01/02 04:44:40;;;;;;;0.30;0.20;;;2.00;99.90;;;;;;5051943;28;20488;-86
2022/01/02 04:47:07;;;;;;;0.30;0.20;;;2.00;99.90;;;;;;5060550;28;20447;-89
2022/01/02 04:49:34;;;;;;;0.30;0.10;;;1.90;99.90;;;;;;5059953;28;20477;-89
2022/01/02 04:52:02;;;;;;;0.40;0.20;;;1.80;99.90;;;;;;5059023;28;20440;-86
2022/01/02 04:54:29;;;;;;;0.30;0.10;;;1.80;99.90;;;;;;5057692;28;20466;-87
2022/01/02 04:56:56;;;;;;;0.30;0.10;;;1.70;99.90;;;;;;5057500;28;21295;-86
2022/01/02 04:59:23;;;;;;;0.30;0.10;;;1.80;99.90;;;;;;5059267;28;20505;-86
2022/01/02 05:01:50;;;;;;;0.30;0.10;;;1.80;99.90;;;;;;5052756;28;20455;-86
2022/01/02 05:04:17;;;;;;;0.30;0.10;;;1.80;99.90;;;;;;5053870;28;20477;-85
2022/01/02 05:06:44;;;;;;;0.40;0.30;;;1.80;99.90;;;;;;5054900;28;20510;-87
2022/01/02 05:09:12;;;;;;;0.30;0.10;;;1.90;99.90;;;;;;5063114;28;20921;-86
2022/01/02 05:11:39;;;;;;;0.40;0.20;;;1.80;99.90;;;;;;5055760;28;20455;-88
2022/01/02 05:14:06;;;;;;;0.30;0.20;;;1.80;99.90;;;;;;5060348;28;20447;-89
2022/01/02 05:16:33;;;;;;;0.30;0.10;;;1.70;99.90;;;;;;5058099;28;20519;-89
2022/01/02 05:19:00;;;;;;;0.30;0.10;;;1.80;99.90;;;;;;5056038;28;20608;-86
2022/01/02 05:21:27;;;;;;;0.30;0.10;;;1.90;99.90;;;;;;5067711;28;20443;-86
2022/01/02 05:23:54;;;;;;;0.30;0.10;;;1.90;99.90;;;;;;5053054;28;20447;-86
2022/01/02 05:26:22;;;;;;;0.30;0.10;;;2.00;99.90;;;;;;5056915;28;20590;-88
2022/01/02 05:28:49;;;;;;;0.30;0.10;;;2.10;99.90;;;;;;5056393;28;20472;-86
2022/01/02 05:31:16;;;;;;;0.30;0.10;;;2.10;99.90;;;;;;5059092;28;20521;-86
2022/01/02 05:33:43;;;;;;;0.30;0.10;;;1.90;99.90;;;;;;5087729;28;20522;-87
2022/01/02 05:36:10;;;;;;;0.40;0.20;;;1.80;99.90;;;;;;5077469;28;20476;-85
2022/01/02 05:38:37;;;;;;;0.30;0.20;;;2.00;99.90;;;;;;5084435;28;20510;-84
2022/01/02 05:41:05;;;;;;;0.30;0.10;;;2.00;99.90;;;;;;5079239;28;20476;-86
2022/01/02 05:43:33;;;;;;;0.30;0.20;;;2.10;99.90;;;;;;5070605;28;20444;-86
2022/01/02 05:46:05;;;;;;;0.30;0.10;;;2.00;99.90;;;;;;5065000;28;20452;-85
2022/01/02 05:48:32;;;;;;;0.40;0.40;;;2.00;99.90;;;;;;5068053;28;20992;-87
2022/01/02 05:51:00;;;;;;;0.47;0.43;;;2.00;99.90;;;;;;5065268;28;20971;-86
2022/01/02 05:53:29;;;;;;;2.23;1.37;;;2.00;99.90;;;;;;5058364;28;20456;-90
2022/01/02 05:55:56;;;;;;;1.37;0.80;;;2.00;99.90;;;;;;5057258;28;20871;-86
2022/01/02 05:58:23;;;;;;;0.30;0.10;;;2.00;99.90;;;;;;5055936;28;20456;-88
2022/01/02 06:00:52;;;;;;;0.57;0.57;;;2.10;99.90;;;;;;5062606;28;20545;-87
2022/01/02 06:03:19;;;;;;;0.30;0.10;;;2.20;99.90;;;;;;5064565;28;20524;-86
2022/01/02 06:05:46;;;;;;;0.30;0.30;;;2.20;99.90;;;;;;5054527;28;20985;-85
2022/01/02 06:08:13;;;;;;;0.30;0.10;;;2.20;99.90;;;;;;5067142;28;20440;-85
2022/01/02 06:10:40;;;;;;;0.30;0.10;;;2.10;99.90;;;;;;5062576;28;20476;-88
2022/01/02 06:13:07;;;;;;;0.30;0.10;;;2.20;99.90;;;;;;5061654;28;20493;-85
2022/01/02 06:15:34;;;;;;;0.30;0.10;;;2.20;99.90;;;;;;5060482;28;20511;-86
2022/01/02 06:18:02;;;;;;;0.30;0.10;;;2.20;99.90;;;;;;5057669;28;20456;-86
2022/01/02 06:20:29;;;;;;;0.30;0.10;;;2.10;99.90;;;;;;5058109;28;20479;-88
2022/01/02 06:22:56;;;;;;;0.80;0.80;;;2.10;99.90;;;;;;5057819;28;20980;-86
2022/01/02 06:25:23;;;;;;;0.30;0.10;;;2.20;99.90;;;;;;5060290;28;20479;-87
2022/01/02 06:27:51;;;;;;;0.30;0.17;;;2.20;99.90;;;;;;5068181;28;20444;-88
2022/01/02 06:30:18;;;;;;;0.30;0.10;;;2.20;99.90;;;;;;5061629;28;20460;-86
2022/01/02 06:32:45;;;;;;;0.30;0.10;;;2.20;99.90;;;;;;5067880;28;20451;-89
2022/01/02 06:35:13;;;;;;;0.30;0.10;;;2.20;99.90;;;;;;5068241;28;21194;-87
2022/01/02 06:37:41;;;;;;;0.30;0.20;;;2.20;99.90;;;;;;5066438;28;20486;-86
2022/01/02 06:40:08;;;;;;;0.30;0.10;;;2.20;99.90;;;;;;5068467;28;20520;-86
2022/01/02 06:42:35;;;;;;;0.30;0.10;;;2.20;99.90;;;;;;5064364;28;20460;-86
2022/01/02 06:45:02;;;;;;;0.30;0.10;;;2.30;99.90;;;;;;5072271;28;20458;-89
2022/01/02 06:47:29;;;;;;;0.30;0.10;;;2.30;99.90;;;;;;5072334;28;20450;-87
2022/01/02 06:49:56;;;;;;;0.30;0.20;;;2.30;99.90;;;;;;5063289;28;20810;-87
2022/01/02 06:52:25;;;;;;;0.30;0.10;;;2.30;99.90;;;;;;5071777;28;20459;-88
2022/01/02 06:54:53;;;;;;;0.53;0.50;;;2.30;99.90;;;;;;5065875;28;20517;-87
2022/01/02 06:57:21;;;;;;;0.30;0.20;;;2.30;99.90;;;;;;5071651;28;20489;-87
2022/01/02 06:59:48;;;;;;;0.30;0.20;;;2.30;99.90;;;;;;5072134;28;20514;-88
2022/01/02 07:02:15;;;;;;;0.30;0.10;;;2.30;99.90;;;;;;5069425;28;20957;-88
2022/01/02 07:04:42;;;;;;;0.73;0.67;;;2.20;99.90;;;;;;5071747;28;20479;-86
2022/01/02 07:07:09;;;;;;;0.30;0.10;;;2.30;99.90;;;;;;5071464;28;20448;-87
2022/01/02 07:09:38;;;;;;;0.30;0.10;;;2.30;99.90;;;;;;5066908;28;20522;-87
2022/01/02 07:12:06;;;;;;;0.30;0.20;;;2.40;99.90;;;;;;5076106;28;20453;-87
2022/01/02 07:14:33;;;;;;;0.30;0.10;;;2.30;99.90;;;;;;5094896;28;20451;-86
2022/01/02 07:17:01;;;;;;;0.30;0.10;;;2.40;99.90;;;;;;5091542;28;20448;-87
2022/01/02 07:19:27;;;;;;;0.40;0.20;;;2.40;99.90;;;;;;5088264;28;20512;-87
2022/01/02 07:21:55;;;;;;;0.30;0.20;;;2.50;99.90;;;;;;5069352;28;20464;-87
2022/01/02 07:24:22;;;;;;;0.30;0.10;;;2.50;99.90;;;;;;5072901;28;20518;-90
2022/01/02 07:26:50;;;;;;;0.30;0.10;;;2.50;99.90;;;;;;5070624;28;20440;-89
2022/01/02 07:29:19;;;;;;;0.70;0.70;;;2.50;99.90;;;;;;5071053;28;20432;-87
2022/01/02 07:31:46;;;;;;;0.30;0.10;;;2.50;99.90;;;;;;5069794;28;20537;-87
2022/01/02 07:34:13;;;;;;;0.30;0.10;;;2.40;99.90;;;;;;5071516;28;20444;-89
2022/01/02 07:36:44;;;;;;;0.30;0.10;;;2.30;99.90;;;;;;5071812;28;20474;-88
2022/01/02 07:39:12;;;;;;;1.33;0.53;;;2.30;99.90;;;;;;5063022;28;20909;-86
2022/01/02 07:41:39;;;;;;;0.30;0.20;;;2.50;99.90;;;;;;5060564;28;20460;-87
2022/01/02 07:44:08;;;;;;;0.30;0.10;;;2.50;99.90;;;;;;5053959;28;20888;-87
2022/01/02 07:46:35;;;;;;;0.30;0.20;;;2.50;99.90;;;;;;5056943;28;20920;-89
2022/01/02 07:49:02;;;;;;;0.30;0.10;;;2.50;99.90;;;;;;5062156;28;20999;-87
2022/01/02 07:51:29;;;;;;;0.30;0.17;;;2.70;99.90;;;;;;5062063;28;20930;-87
2022/01/02 07:53:56;;;;;;;0.50;0.50;;;2.70;99.90;;;;;;5059551;28;20444;-86
2022/01/02 07:56:24;;;;;;;0.30;0.10;;;2.80;99.90;;;;;;5060259;28;20928;-87
2022/01/02 07:58:51;;;;;;;0.30;0.20;;;2.90;99.90;;;;;;5058543;28;20583;-87
2022/01/02 08:01:20;;;;;;;0.30;0.10;;;2.90;99.90;;;;;;5067670;28;21292;-87
2022/01/02 08:03:47;;;;;;;0.37;0.20;;;3.10;99.90;;;;;;5065489;28;20466;-92
2022/01/02 08:06:14;;;;;;;0.40;0.40;;;3.10;99.90;;;;;;5058772;28;20449;-89
2022/01/02 08:08:42;;;;;;;0.30;0.10;;;3.20;99.90;;;;;;5054586;28;20451;-86
2022/01/02 08:11:09;;;;;;;0.30;0.20;;;3.30;99.90;;;;;;5062157;28;20464;-85
2022/01/02 08:13:36;;;;;;;0.30;0.10;;;3.20;99.90;;;;;;5061301;28;20565;-85
2022/01/02 08:16:03;;;;;;;0.30;0.10;;;3.20;99.90;;;;;;5068212;28;20744;-86
2022/01/02 08:18:31;;;;;;;0.30;0.10;;;3.30;99.90;;;;;;5064753;28;20466;-85
2022/01/02 08:20:58;;;;;;;0.30;0.20;;;3.30;99.90;;;;;;5060313;28;20530;-85
2022/01/02 08:23:25;;;;;;;0.30;0.10;;;3.30;99.90;;;;;;5059201;28;20516;-85
2022/01/02 08:25:52;;;;;;;0.30;0.20;;;3.30;99.90;;;;;;5053834;28;20882;-84
2022/01/02 08:28:20;;;;;;;0.30;0.10;;;3.30;99.90;;;;;;5052420;28;20487;-89
2022/01/02 08:30:47;;;;;;;0.30;0.10;;;3.10;99.90;;;;;;5054779;28;20458;-84
2022/01/02 08:33:14;;;;;;;0.37;0.20;;;3.20;99.90;;;;;;5059819;28;20436;-84
2022/01/02 08:35:43;;;;;;;0.30;0.10;;;3.20;99.90;;;;;;5059200;28;20590;-83
2022/01/02 08:38:10;;;;;;;0.30;0.10;;;3.00;99.90;;;;;;5068425;28;20468;-84
2022/01/02 08:40:37;;;;;;;0.30;0.10;;;2.80;99.90;;;;;;5064504;28;20480;-86
2022/01/02 08:43:04;;;;;;;0.40;0.30;;;2.70;99.90;;;;;;5068150;28;20444;-90
2022/01/02 08:45:31;;;;;;;0.30;0.20;;;2.60;99.90;;;;;;5057227;28;20522;-87
2022/01/02 08:47:59;;;;;;;0.63;0.43;;;2.60;99.90;;;;;;5067307;28;20452;-87
2022/01/02 08:50:26;;;;;;;0.30;0.10;;;2.70;99.90;;;;;;5074926;28;20454;-86
2022/01/02 08:52:54;;;;;;;0.30;0.10;;;2.70;99.90;;;;;;5090368;28;20508;-86
2022/01/02 08:55:21;;;;;;;0.30;0.20;;;2.70;99.90;;;;;;5081768;28;20531;-84
2022/01/02 08:57:48;;;;;;;0.30;0.10;;;2.80;99.90;;;;;;5084625;28;20451;-84
2022/01/02 09:00:16;;;;;;;0.30;0.20;;;2.70;99.90;;;;;;5080479;28;20480;-87
2022/01/02 09:02:44;;;;;;;0.30;0.20;;;2.60;99.90;;;;;;5068495;28;20446;-84
2022/01/02 09:05:11;;;;;;;0.30;0.20;;;2.50;99.90;;;;;;5071774;28;20454;-87
2022/01/02 09:07:37;;;;;;;0.30;0.10;;;2.50;99.90;;;;;;5065903;28;20197;-85
2022/01/02 09:10:07;;;;;;;0.30;0.10;;;2.60;99.90;;;;;;5070883;28;20436;-85
2022/01/02 09:12:34;;;;;;;0.30;0.10;;;2.60;99.90;;;;;;5066555;28;21107;-86
2022/01/02 09:15:00;;;;;;;0.30;0.10;;;2.80;99.90;;;;;;5062128;28;20431;-85
2022/01/02 09:17:27;;;;;;;0.30;0.10;;;2.80;99.90;;;;;;5069379;28;20247;-85
2022/01/02 09:19:57;;;;;;;0.30;0.10;;;2.80;99.90;;;;;;5061772;28;20585;-85
2022/01/02 09:22:24;;;;;;;0.30;0.20;;;3.00;99.90;;;;;;5069186;28;20450;-84
2022/01/02 09:24:52;;;;;;;0.30;0.10;;;3.20;99.90;;;;;;5070391;28;20448;-87
2022/01/02 09:27:20;;;;;;;0.30;0.20;;;3.40;99.90;;;;;;5069849;28;20450;-87
2022/01/02 09:29:47;;;;;;;0.30;0.10;;;3.70;99.90;;;;;;5057211;28;20484;-84
2022/01/02 09:32:14;;;;;;;0.30;0.10;;;3.80;99.90;;;;;;5069387;28;20500;-85
2022/01/02 09:34:41;;;;;;;0.50;0.50;;;3.80;99.90;;;;;;5068434;28;20945;-85
2022/01/02 09:37:08;;;;;;;0.40;0.20;;;3.80;99.90;;;;;;5064992;28;20922;-88
2022/01/02 09:39:36;;;;;;;0.30;0.20;;;3.60;99.90;;;;;;5069053;28;20444;-84
2022/01/02 09:42:03;;;;;;;0.30;0.13;;;3.60;99.90;;;;;;5066847;28;20533;-84
2022/01/02 09:44:32;;;;;;;0.30;0.10;;;3.70;99.90;;;;;;5062630;28;20525;-86
2022/01/02 09:46:59;;;;;;;1.13;1.13;;;3.70;99.90;;;;;;5070215;28;20565;-86
2022/01/02 09:49:26;;;;;;;0.50;0.23;;;3.90;99.90;;;;;;5065117;28;20551;-84
2022/01/02 09:51:53;;;;;;;0.30;0.20;;;3.90;99.90;;;;;;5069436;28;20959;-86
2022/01/02 09:54:21;;;;;;;0.30;0.20;;;3.90;99.90;;;;;;5068903;28;20527;-86
2022/01/02 09:56:48;;;;;;;0.30;0.20;;;4.10;99.90;;;;;;5068948;28;20468;-85
2022/01/02 09:59:14;;;;;;;0.30;0.10;;;4.20;99.90;;;;;;5057319;28;20461;-85
2022/01/02 10:01:43;;;;;;;0.30;0.20;;;4.10;99.90;;;;;;5063379;28;20506;-85
2022/01/02 10:04:11;;;;;;;0.30;0.10;;;3.90;99.90;;;;;;5068412;28;20452;-85
2022/01/02 10:06:40;;;;;;;0.67;0.67;;;4.00;99.90;;;;;;5069013;28;20930;-86
2022/01/02 10:09:11;;;;;;;0.30;0.20;;;4.10;99.90;;;;;;5068789;28;20486;-87
2022/01/02 10:11:40;;;;;;;0.30;0.20;;;4.30;99.90;;;;;;5062555;28;20451;-86
2022/01/02 10:14:09;;;;;;;0.30;0.10;;;4.10;99.90;;;;;;5068810;28;20479;-85
2022/01/02 10:16:38;;;;;;;0.30;0.20;;;3.90;99.90;;;;;;5068350;28;20466;-85
2022/01/02 10:19:21;;;;;;;0.30;0.17;;;3.90;99.90;;;;;;5070150;28;20942;-85
2022/01/02 10:21:56;;;;;;;0.30;0.10;;;4.00;99.90;;;;;;5072163;28;20486;-86
2022/01/02 10:24:26;;;;;;;0.30;0.10;;;3.90;99.90;;;;;;5069580;28;20459;-85
2022/01/02 10:27:21;;;;;;;1.03;0.40;;;4.10;99.90;;;;;;5071637;28;20443;-87
2022/01/02 10:29:50;;;;;;;0.30;0.10;;;4.00;99.90;;;;;;5035173;28;20462;-84
2022/01/02 10:32:29;;;;;;;0.30;0.20;;;4.10;99.90;;;;;;5087551;28;20511;-87
2022/01/02 10:35:11;;;;;;;0.30;0.10;;;4.40;99.90;;;;;;5088561;28;20468;-85
2022/01/02 10:37:38;;;;;;;0.30;0.10;;;4.40;99.90;;;;;;5084885;28;20444;-84
2022/01/02 10:40:06;;;;;;;0.30;0.10;;;4.60;99.90;;;;;;5086161;28;20497;-84
2022/01/02 10:42:41;;;;;;;0.30;0.10;;;4.70;99.90;;;;;;5069491;28;20457;-87
2022/01/02 10:45:09;;;;;;;0.30;0.20;;;4.80;99.90;;;;;;5073452;28;20435;-85
2022/01/02 10:47:36;;;;;;;0.40;0.20;;;4.90;99.90;;;;;;5071880;28;20509;-86
2022/01/02 10:50:06;;;;;;;0.30;0.10;;;5.00;99.90;;;;;;5069630;28;20450;-85
2022/01/02 10:52:38;;;;;;;0.30;0.10;;;4.90;99.90;;;;;;5068189;28;20476;-85
2022/01/02 10:55:14;;;;;;;0.30;0.20;;;4.80;99.90;;;;;;5071916;28;20503;-85
2022/01/02 10:57:42;;;;;;;0.73;0.53;;;5.00;99.90;;;;;;5072250;28;20536;-86
2022/01/02 11:00:10;;;;;;;0.30;0.20;;;5.00;99.90;;;;;;5066738;28;20987;-85
2022/01/02 11:02:39;;;;;;;0.30;0.10;;;5.00;99.90;;;;;;5070083;28;21218;-85
2022/01/02 11:05:08;;;;;;;0.30;0.20;;;5.10;99.90;;;;;;5063138;28;20763;-85
2022/01/02 11:07:41;;;;;;;0.30;0.20;;;5.10;99.90;;;;;;5072303;28;20529;-84
2022/01/02 11:10:09;;;;;;;0.30;0.20;;;5.10;99.90;;;;;;5066052;28;20461;-85
2022/01/02 11:12:38;;;;;;;0.30;0.10;;;4.90;99.90;;;;;;5071960;28;20448;-84
2022/01/02 11:15:08;;;;;;;0.30;0.30;;;4.90;99.90;;;;;;5071836;28;20467;-85
2022/01/02 11:17:36;;;;;;;0.40;0.33;;;4.90;99.90;;;;;;5067345;28;20460;-85
2022/01/02 11:20:05;;;;;;;0.40;0.20;;;4.90;99.90;;;;;;5071884;28;20696;-85
2022/01/02 11:22:36;;;;;;;0.30;0.17;;;5.20;99.90;;;;;;5069988;28;20541;-86
2022/01/02 11:25:13;;;;;;;0.30;0.20;;;5.20;99.90;;;;;;5071373;28;20443;-85
2022/01/02 11:27:44;;;;;;;0.30;0.10;;;5.20;99.90;;;;;;5071126;28;20479;-85
2022/01/02 11:30:35;;;;;;;0.30;0.10;;;5.30;99.90;;;;;;5068961;28;20459;-85
2022/01/02 11:33:04;;;;;;;0.30;0.20;;;5.50;99.90;;;;;;5071821;28;20440;-85
2022/01/02 11:35:32;;;;;;;0.30;0.20;;;5.40;99.90;;;;;;5070968;28;20476;-85
2022/01/02 11:38:01;;;;;;;1.43;0.50;;;5.30;99.90;;;;;;5069635;28;20456;-85
2022/01/02 11:40:49;;;;;;;0.30;0.10;;;5.30;99.90;;;;;;5070944;28;20871;-86
2022/01/02 11:43:54;;;;;;;0.30;0.10;;;5.30;99.90;;;;;;5066488;28;20457;-85
2022/01/02 11:46:26;;;;;;;0.30;0.10;;;5.40;99.90;;;;;;5065313;28;20490;-84
2022/01/02 11:49:16;;;;;;;0.30;0.10;;;5.20;99.90;;;;;;5067526;28;20455;-85
2022/01/02 11:52:06;;;;;;;0.37;0.20;;;5.10;99.90;;;;;;5071306;28;20498;-85
2022/01/02 11:54:58;;;;;;;0.30;0.10;;;5.20;99.90;;;;;;5062813;28;20466;-85
2022/01/02 11:57:54;;;;;;;0.40;0.40;;;5.20;99.90;;;;;;5064986;28;20440;-85
2022/01/02 12:00:45;;;;;;;0.30;0.10;;;5.50;99.90;;;;;;5071243;28;20543;-85
2022/01/02 12:03:49;;;;;;;0.30;0.13;;;5.40;99.90;;;;;;5066749;28;20467;-86
2022/01/02 12:06:21;;;;;;;0.87;0.87;;;5.40;99.90;;;;;;5070347;28;20450;-84
2022/01/02 12:08:49;;;;;;;0.30;0.10;;;5.50;99.90;;;;;;5071220;28;20509;-83
2022/01/02 12:11:44;;;;;;;0.30;0.20;;;5.60;99.90;;;;;;5088347;28;20444;-84
2022/01/02 12:14:22;;;;;;;0.50;0.47;;;5.70;99.90;;;;;;5084346;28;20459;-84
2022/01/02 12:17:01;;;;;;;0.30;0.10;;;5.60;99.90;;;;;;5081920;28;20445;-83
2022/01/02 12:19:48;;;;;;;0.30;0.20;;;5.70;99.90;;;;;;5074675;28;20885;-85
2022/01/02 12:22:16;;;;;;;0.30;0.17;;;5.90;99.90;;;;;;5068246;28;20509;-84
2022/01/02 12:24:45;;;;;;;0.73;0.73;;;6.10;99.90;;;;;;5064872;28;20532;-84
2022/01/02 12:27:14;;;;;;;0.30;0.10;;;5.90;99.90;;;;;;5064384;28;20460;-84
2022/01/02 12:29:43;;;;;;;0.50;0.50;;;6.00;99.90;;;;;;5071004;28;20497;-87
2022/01/02 12:32:11;;;;;;;0.40;0.30;;;6.40;99.90;;;;;;5069805;28;20444;-85
2022/01/02 12:34:40;;;;;;;0.30;0.20;;;6.10;99.90;;;;;;5069423;28;20551;-83
2022/01/02 12:37:07;;;;;;;0.30;0.20;;;6.20;99.90;;;;;;5064911;28;20460;-83
2022/01/02 12:39:35;;;;;;;0.30;0.10;;;6.10;99.90;;;;;;5070847;28;20532;-85
2022/01/02 12:42:04;;;;;;;0.30;0.10;;;6.10;99.90;;;;;;5059137;28;20588;-85
2022/01/02 12:44:33;;;;;;;0.30;0.20;;;6.20;99.90;;;;;;5069742;28;20440;-83
2022/01/02 12:47:03;;;;;;;4.50;1.70;;;6.20;99.90;;;;;;5070032;28;20463;-83
2022/01/02 12:49:32;;;;;;;0.57;0.27;;;6.10;99.90;;;;;;5062748;28;20514;-84
2022/01/02 12:52:01;;;;;;;0.30;0.20;;;5.90;99.90;;;;;;5069407;28;20440;-83
2022/01/02 12:54:31;;;;;;;0.40;0.33;;;5.90;99.90;;;;;;5068248;28;20549;-83
2022/01/02 12:56:59;;;;;;;0.30;0.10;;;5.90;99.90;;;;;;5069618;28;20522;-83
2022/01/02 12:59:31;;;;;;;0.30;0.20;;;5.80;99.90;;;;;;5070155;28;20445;-83
2022/01/02 13:02:04;;;;;;;0.30;0.20;;;5.70;99.90;;;;;;5053992;28;20480;-84
2022/01/02 13:04:33;;;;;;;0.30;0.20;;;5.60;99.90;;;;;;5069533;28;20448;-83
2022/01/02 13:07:03;;;;;;;0.30;0.20;;;5.50;99.90;;;;;;5069517;28;20496;-84
2022/01/02 13:09:33;;;;;;;0.30;0.10;;;5.40;99.90;;;;;;5062483;28;20795;-83
2022/01/02 13:12:01;;;;;;;0.40;0.20;;;5.30;99.90;;;;;;5070135;28;20439;-83
2022/01/02 13:14:41;;;;;;;0.30;0.20;;;5.30;99.90;;;;;;5069194;28;20444;-84